Downstream station:
SHEF ID: GCSO2 Cave Springs Br nr South W C
STATION TYPE:
STAGE STAGE(2) RIV-FLOW BAT-LOAD
ft ft cfs volt
Ccp-Rev Ccp-Rev Ccp-Rev Ccp-Rev
(US/Central)
03/24 00:00 2.87 4.80 0 12.17
03/24 01:00 2.83 4.77 0 12.17
03/24 02:00 2.82 4.78 0 12.17
03/24 03:00 2.82 4.77 0 12.17
03/24 04:00 2.84 4.78 0 12.17
03/24 05:00 2.84 4.78 0 12.17
03/24 06:00 2.83 4.78 0 12.17
03/24 07:00 2.82 4.76 0 12.17
03/24 08:00 2.82 4.75 0 12.17
03/24 09:00 2.85 4.74 0 12.17
03/24 10:00 2.94 4.75 0 12.17
03/24 11:00 3.13 4.77 0 12.57
03/24 12:00 3.29 4.77 0 13.05
03/24 13:00 3.31 4.76 0 13.29
03/24 14:00 3.39 4.77 0 13.29
03/24 15:00 3.47 4.75 0 13.29
03/24 16:00 3.62 4.75 0 13.29
03/24 17:00 3.62 4.76 0 13.21
03/24 18:00 3.50 4.75 0 13.29
03/24 19:00 3.45 4.77 0 13.29
03/24 20:00 3.22 4.77 0 13.13
03/24 21:00 3.03 4.75 0 12.81
03/24 22:00 2.88 4.75 0 12.65
03/24 23:00 2.74 4.74 0 12.49